Terminal Aerodrome Forecast
Issued by NWS Grand Forks, ND

Home | Current Version | Previous Version | Text Only | Print | Product List | Glossary Off
Versions: 1 2 3 4 5 6 7 8 9 10 11 12 13 14 15 16

000
FTUS43 KFGF 010500
TAFFAR
TAF
KFAR 010538Z 0106/0206 26008KT P6SM SKC
     FM011200 21007KT P6SM BKN080
     FM011800 30012KT P6SM BKN050
     FM012100 30014KT P6SM SCT050=

USA.gov is the U.S. government's official web portal to all federal, state and local government web resources and services.